Portada
METAR-TAF:

METAR-TAF

Aeropuertos :

Castres, Francia

latitud: 43-33-25N, longitud: 2-17-21E, altitud: 239 m

Observación

El informe se hizo hace 44 minutos, a las 19:00 UTC
Viento 2 kt del noreste
Temperatura 7°C
Humedad 87%
Presión 1019 hPa
Visibilidad 10 km o más
sin nubes por debajo de 1500 m y sin presencia de cumulonimbus.

METAR: LFCK 291900Z AUTO 04002KT CAVOK 07/05 Q1019 NOSIG

Hora: 20:44 (19:44 UTC)

Pronóstico

El informe se hizo hace 2 horas y 44 minutos, a las 17:00 UTC
Pronóstico válido del 29 a las 18 UTC al 30 a las 03 UTC
Viento 2 kt con dirección variable
Visibilidad 10 km o más
sin nubes por debajo de 1500 m y sin presencia de cumulonimbus.

TAF: LFCK 291700Z 2918/3003 VRB02KT CAVOK

Observaciones y pronósticos meteorológicos de más de 4000 aeropuertos (mensajes METAR y TAF).

Los puntos amarillos y rojos representan las estaciones disponibles.

Ponga el ratón en el punto deseado para ver el nombre de la estación.

Haga clic para ver las observaciones y los pronósticos meteorológicos.

Para cambiar el mapa : haga clic en los botones verdes con una cruz de color negro para hacer un zoom, en el botón verde con un guión para alejar o en las flechas verdes para mapas adyacentes.


METAR-TAF: